Helvetia One — D5AP8 — position and weather

sailwx.info

Track history (hours):
 
Tides and Currents Weather Stations Pressure Air Temp Water Temp Dewpoint Dewpoint Depression Visibility Wind Speed Wind Dir Waves Ship Positions

Helvetia One

Last reported at 2018-Feb-23 05:51 UTC. Time now 2018-Feb-23 20:18 UTC.
Position N 51°45' E 002°34'.

Length 229 m; draft 14 m.

Type: Cargo ship. MMSI: 636015419.

Date/timePositionNaut miles runAvg speedWind from/ knotsBaromVisibWave heightAir tempDewpointWater temp
2018-Feb-23 05:51N 51°45' E 002°34'413.0
2018-Feb-23 05:30N 51°42' E 002°30'712.9
2018-Feb-23 04:58N 51°36' E 002°23'612.6
2018-Feb-23 04:28N 51°31' E 002°17'612.3
2018-Feb-23 04:00N 51°27' E 002°12'612.2
2018-Feb-23 03:30N 51°21' E 002°09'611.7
2018-Feb-23 03:00N 51°15' E 002°06'510.4
2018-Feb-23 02:30N 51°12' E 001°60'510.6
2018-Feb-23 02:00N 51°09' E 001°52'5 9.9
2018-Feb-23 01:30N 51°07' E 001°45'5 9.4
2018-Feb-23 01:00N 51°03' E 001°40'4 8.9
2018-Feb-23 00:30N 51°00' E 001°35'4 8.7
2018-Feb-23 00:00N 50°57' E 001°31'16 9.0
2018-Feb-22 22:15N 50°42' E 001°21'26 9.9
2018-Feb-22 19:35N 50°27' E 000°47'110.2
2018-Feb-22 19:27N 50°27' E 000°45'1310.2
2018-Feb-22 18:13N 50°23' E 000°26'310.3
2018-Feb-22 17:57N 50°22' E 000°22'510.3
2018-Feb-22 17:26N 50°21' E 000°14'410.3
2018-Feb-22 17:01N 50°20' E 000°07'510.6
2018-Feb-22 16:30N 50°18' W 000°01'510.8
2018-Feb-22 16:00N 50°17' W 000°09'611.1
2018-Feb-22 15:30N 50°15' W 000°17'611.5
2018-Feb-22 15:00N 50°14' W 000°26'612.0
2018-Feb-22 14:31N 50°12' W 000°35'612.6
2018-Feb-22 14:00N 50°11' W 000°44'713.2
2018-Feb-22 13:30N 50°09' W 000°54'713.7
2018-Feb-22 13:00N 50°07' W 001°05'714.1
2018-Feb-22 12:30N 50°05' W 001°15'714.4
2018-Feb-22 12:00N 50°04' W 001°26'714.5
2018-Feb-22 11:30N 50°02' W 001°37'714.5
2018-Feb-22 11:01N 49°60' W 001°48'714.3
2018-Feb-22 10:30N 49°58' W 001°59'713.7
2018-Feb-22 10:00N 49°56' W 002°09'11510.8
2018-Feb-21 23:17N 49°07' W 004°49'511.0
2018-Feb-21 22:51N 49°04' W 004°56'411.2
2018-Feb-21 22:27N 49°02' W 005°02'611.3
2018-Feb-21 21:57N 48°59' W 005°09'511.8
2018-Feb-21 21:30N 48°57' W 005°16'612.0
2018-Feb-21 21:00N 48°54' W 005°24'612.2
2018-Feb-21 20:31N 48°51' W 005°32'612.2
2018-Feb-21 19:59N 48°47' W 005°39'612.5
2018-Feb-21 19:29N 48°41' W 005°44'612.6
2018-Feb-21 19:00N 48°35' W 005°48'812.6
2018-Feb-21 18:22N 48°28' W 005°53'1112.2
2018-Feb-21 17:26N 48°18' W 006°00'511.6
2018-Feb-21 16:59N 48°13' W 006°04'611.5
2018-Feb-21 16:27N 48°08' W 006°08'611.4
2018-Feb-21 15:57N 48°03' W 006°11'1910.7
2018-Feb-21 14:10N 47°46' W 006°24'1710.0
2018-Feb-21 12:26N 47°31' W 006°36'510.7
2018-Feb-21 12:00N 47°26' W 006°40'49810.5
2018-Feb-19 12:44N 39°59' W 011°44'210.0
2018-Feb-19 12:30N 39°57' W 011°45'810.0
2018-Feb-19 11:42N 39°49' W 011°47'210.0
2018-Feb-19 11:30N 39°47' W 011°48'510.0
2018-Feb-19 11:00N 39°43' W 011°49'1810.3
2018-Feb-19 09:17N 39°25' W 011°55'310.4
2018-Feb-19 09:00N 39°23' W 011°56'510.1
2018-Feb-19 08:31N 39°18' W 011°58'710.4
2018-Feb-19 07:52N 39°11' W 011°60'410.7
2018-Feb-19 07:30N 39°08' W 012°01'14710.7
2018-Feb-18 17:47N 36°45' W 012°47'310.6
2018-Feb-18 17:30N 36°42' W 012°48'42111.0
2018-Feb-17 03:12N 29°54' W 014°52'810.9
2018-Feb-17 02:29N 29°46' W 014°54'510.9
2018-Feb-17 01:59N 29°41' W 014°56'811.1
2018-Feb-17 01:13N 29°32' W 014°58'211.1
2018-Feb-17 01:00N 29°30' W 014°59'611.3
2018-Feb-17 00:30N 29°25' W 015°00'611.4
2018-Feb-17 00:00N 29°19' W 015°02'611.4
2018-Feb-16 23:30N 29°14' W 015°04'611.3
2018-Feb-16 22:59N 29°08' W 015°05'611.3
2018-Feb-16 22:26N 29°02' W 015°07'511.2
2018-Feb-16 22:00N 28°57' W 015°09'611.6
2018-Feb-16 21:30N 28°52' W 015°10'611.5
2018-Feb-16 21:00N 28°46' W 015°12'611.3
2018-Feb-16 20:30N 28°41' W 015°13'611.5
2018-Feb-16 20:00N 28°35' W 015°15'611.7
2018-Feb-16 19:30N 28°29' W 015°16'611.7
2018-Feb-16 19:00N 28°24' W 015°18'611.5
2018-Feb-16 18:30N 28°18' W 015°20'611.4
2018-Feb-16 18:00N 28°13' W 015°21'510.8
2018-Feb-16 17:30N 28°07' W 015°23'1 2.0
2018-Feb-16 16:59N 28°07' W 015°24'0 0.0
2018-Feb-16 16:14N 28°07' W 015°24'0 0.0
2018-Feb-16 15:59N 28°07' W 015°24'0 0.0
2018-Feb-16 15:29N 28°07' W 015°24'0 0.0
2018-Feb-16 14:50N 28°07' W 015°24'0 0.0
2018-Feb-16 14:23N 28°07' W 015°24'0 0.0
2018-Feb-16 13:53N 28°07' W 015°24'0 0.0
2018-Feb-16 13:23N 28°07' W 015°24'0 0.0
2018-Feb-16 12:53N 28°07' W 015°24'0 0.0
2018-Feb-16 12:23N 28°07' W 015°24'0 0.0
2018-Feb-16 11:53N 28°07' W 015°24'0 0.0
2018-Feb-16 11:23N 28°07' W 015°24'0 0.0
2018-Feb-16 10:56N 28°07' W 015°24'0 0.0
2018-Feb-16 10:26N 28°07' W 015°24'0 0.1
2018-Feb-16 09:56N 28°07' W 015°24'0 0.0
2018-Feb-16 09:26N 28°07' W 015°24'0 0.3
2018-Feb-16 08:56N 28°07' W 015°24'0 0.2
2018-Feb-16 08:29N 28°07' W 015°24'2 3.3
2018-Feb-16 08:00N 28°07' W 015°22'1 2.3
2018-Feb-16 07:30N 28°08' W 015°21'1 1.3
2018-Feb-16 07:00N 28°07' W 015°21'1 2.5
2018-Feb-16 06:30N 28°07' W 015°19'3 6.3
2018-Feb-16 06:00N 28°05' W 015°17'510.3
2018-Feb-16 05:30N 27°60' W 015°15'611.4
2018-Feb-16 05:00N 27°54' W 015°15'611.1
2018-Feb-16 04:30N 27°48' W 015°15'610.9
2018-Feb-16 03:59N 27°44' W 015°18'  
Track history (hours):
 
Tides and Currents Weather Stations Pressure Air Temp Water Temp Dewpoint Dewpoint Depression Visibility Wind Speed Wind Dir Waves Ship Positions

Helvetia One

Last reported at 2018-Feb-23 05:51 UTC. Time now 2018-Feb-23 20:18 UTC.
Position N 51°45' E 002°34'.

Length 229 m; draft 14 m.

Type: Cargo ship. MMSI: 636015419.

Date/timePositionNaut miles runAvg speedWind from/ knotsBaromVisibWave heightAir tempDewpointWater temp
2018-Feb-23 05:51N 51°45' E 002°34'413.0
2018-Feb-23 05:30N 51°42' E 002°30'712.9
2018-Feb-23 04:58N 51°36' E 002°23'612.6
2018-Feb-23 04:28N 51°31' E 002°17'612.3
2018-Feb-23 04:00N 51°27' E 002°12'612.2
2018-Feb-23 03:30N 51°21' E 002°09'611.7
2018-Feb-23 03:00N 51°15' E 002°06'510.4
2018-Feb-23 02:30N 51°12' E 001°60'510.6
2018-Feb-23 02:00N 51°09' E 001°52'5 9.9
2018-Feb-23 01:30N 51°07' E 001°45'5 9.4
2018-Feb-23 01:00N 51°03' E 001°40'4 8.9
2018-Feb-23 00:30N 51°00' E 001°35'4 8.7
2018-Feb-23 00:00N 50°57' E 001°31'16 9.0
2018-Feb-22 22:15N 50°42' E 001°21'26 9.9
2018-Feb-22 19:35N 50°27' E 000°47'110.2
2018-Feb-22 19:27N 50°27' E 000°45'1310.2
2018-Feb-22 18:13N 50°23' E 000°26'310.3
2018-Feb-22 17:57N 50°22' E 000°22'510.3
2018-Feb-22 17:26N 50°21' E 000°14'410.3
2018-Feb-22 17:01N 50°20' E 000°07'510.6
2018-Feb-22 16:30N 50°18' W 000°01'510.8
2018-Feb-22 16:00N 50°17' W 000°09'611.1
2018-Feb-22 15:30N 50°15' W 000°17'611.5
2018-Feb-22 15:00N 50°14' W 000°26'612.0
2018-Feb-22 14:31N 50°12' W 000°35'612.6
2018-Feb-22 14:00N 50°11' W 000°44'713.2
2018-Feb-22 13:30N 50°09' W 000°54'713.7
2018-Feb-22 13:00N 50°07' W 001°05'714.1
2018-Feb-22 12:30N 50°05' W 001°15'714.4
2018-Feb-22 12:00N 50°04' W 001°26'714.5
2018-Feb-22 11:30N 50°02' W 001°37'714.5
2018-Feb-22 11:01N 49°60' W 001°48'714.3
2018-Feb-22 10:30N 49°58' W 001°59'713.7
2018-Feb-22 10:00N 49°56' W 002°09'11510.8
2018-Feb-21 23:17N 49°07' W 004°49'511.0
2018-Feb-21 22:51N 49°04' W 004°56'411.2
2018-Feb-21 22:27N 49°02' W 005°02'611.3
2018-Feb-21 21:57N 48°59' W 005°09'511.8
2018-Feb-21 21:30N 48°57' W 005°16'612.0
2018-Feb-21 21:00N 48°54' W 005°24'612.2
2018-Feb-21 20:31N 48°51' W 005°32'612.2
2018-Feb-21 19:59N 48°47' W 005°39'612.5
2018-Feb-21 19:29N 48°41' W 005°44'612.6
2018-Feb-21 19:00N 48°35' W 005°48'812.6
2018-Feb-21 18:22N 48°28' W 005°53'1112.2
2018-Feb-21 17:26N 48°18' W 006°00'511.6
2018-Feb-21 16:59N 48°13' W 006°04'611.5
2018-Feb-21 16:27N 48°08' W 006°08'611.4
2018-Feb-21 15:57N 48°03' W 006°11'1910.7
2018-Feb-21 14:10N 47°46' W 006°24'1710.0
2018-Feb-21 12:26N 47°31' W 006°36'510.7
2018-Feb-21 12:00N 47°26' W 006°40'49810.5
2018-Feb-19 12:44N 39°59' W 011°44'210.0
2018-Feb-19 12:30N 39°57' W 011°45'810.0
2018-Feb-19 11:42N 39°49' W 011°47'210.0
2018-Feb-19 11:30N 39°47' W 011°48'510.0
2018-Feb-19 11:00N 39°43' W 011°49'1810.3
2018-Feb-19 09:17N 39°25' W 011°55'310.4
2018-Feb-19 09:00N 39°23' W 011°56'510.1
2018-Feb-19 08:31N 39°18' W 011°58'710.4
2018-Feb-19 07:52N 39°11' W 011°60'410.7
2018-Feb-19 07:30N 39°08' W 012°01'14710.7
2018-Feb-18 17:47N 36°45' W 012°47'310.6
2018-Feb-18 17:30N 36°42' W 012°48'42111.0
2018-Feb-17 03:12N 29°54' W 014°52'810.9
2018-Feb-17 02:29N 29°46' W 014°54'510.9
2018-Feb-17 01:59N 29°41' W 014°56'811.1
2018-Feb-17 01:13N 29°32' W 014°58'211.1
2018-Feb-17 01:00N 29°30' W 014°59'611.3
2018-Feb-17 00:30N 29°25' W 015°00'611.4
2018-Feb-17 00:00N 29°19' W 015°02'611.4
2018-Feb-16 23:30N 29°14' W 015°04'611.3
2018-Feb-16 22:59N 29°08' W 015°05'611.3
2018-Feb-16 22:26N 29°02' W 015°07'511.2
2018-Feb-16 22:00N 28°57' W 015°09'611.6
2018-Feb-16 21:30N 28°52' W 015°10'611.5
2018-Feb-16 21:00N 28°46' W 015°12'611.3
2018-Feb-16 20:30N 28°41' W 015°13'611.5
2018-Feb-16 20:00N 28°35' W 015°15'611.7
2018-Feb-16 19:30N 28°29' W 015°16'611.7
2018-Feb-16 19:00N 28°24' W 015°18'611.5
2018-Feb-16 18:30N 28°18' W 015°20'611.4
2018-Feb-16 18:00N 28°13' W 015°21'510.8
2018-Feb-16 17:30N 28°07' W 015°23'1 2.0
2018-Feb-16 16:59N 28°07' W 015°24'0 0.0
2018-Feb-16 16:14N 28°07' W 015°24'0 0.0
2018-Feb-16 15:59N 28°07' W 015°24'0 0.0
2018-Feb-16 15:29N 28°07' W 015°24'0 0.0
2018-Feb-16 14:50N 28°07' W 015°24'0 0.0
2018-Feb-16 14:23N 28°07' W 015°24'0 0.0
2018-Feb-16 13:53N 28°07' W 015°24'0 0.0
2018-Feb-16 13:23N 28°07' W 015°24'0 0.0
2018-Feb-16 12:53N 28°07' W 015°24'0 0.0
2018-Feb-16 12:23N 28°07' W 015°24'0 0.0
2018-Feb-16 11:53N 28°07' W 015°24'0 0.0
2018-Feb-16 11:23N 28°07' W 015°24'0 0.0
2018-Feb-16 10:56N 28°07' W 015°24'0 0.0
2018-Feb-16 10:26N 28°07' W 015°24'0 0.1
2018-Feb-16 09:56N 28°07' W 015°24'0 0.0
2018-Feb-16 09:26N 28°07' W 015°24'0 0.3
2018-Feb-16 08:56N 28°07' W 015°24'0 0.2
2018-Feb-16 08:29N 28°07' W 015°24'2 3.3
2018-Feb-16 08:00N 28°07' W 015°22'1 2.3
2018-Feb-16 07:30N 28°08' W 015°21'1 1.3
2018-Feb-16 07:00N 28°07' W 015°21'1 2.5
2018-Feb-16 06:30N 28°07' W 015°19'3 6.3
2018-Feb-16 06:00N 28°05' W 015°17'510.3
2018-Feb-16 05:30N 27°60' W 015°15'611.4
2018-Feb-16 05:00N 27°54' W 015°15'611.1
2018-Feb-16 04:30N 27°48' W 015°15'610.9
2018-Feb-16 03:59N 27°44' W 015°18'  

Dump ship's entire track history